Time;durP1;ratioP1;P1;durP2;ratioP2;P2;SDS_P1;SDS_P2;PMS_P1;PMS_P2;Temp;Humidity;BMP_temperature;BMP_pressure;BME280_temperature;BME280_humidity;BME280_pressure;Samples;Min_cycle;Max_cycle;Signal;HPM_P1;HPM_P2
2022/01/05 00:02:03;;;;;;;;;;;;;;;4.03;86.98;99367.44;5059003;27;20658;-69
2022/01/05 00:04:28;;;;;;;;;;;;;;;3.77;85.34;99367.81;5040324;27;20768;-67
2022/01/05 00:06:53;;;;;;;;;;;;;;;3.61;84.85;99363.03;5060019;27;19899;-69
2022/01/05 00:09:19;;;;;;;;;;;;;;;3.37;84.76;99376.34;5020685;27;20045;-67
2022/01/05 00:11:45;;;;;;;;;;;;;;;3.44;84.67;99377.50;5073403;27;19989;-68
2022/01/05 00:14:10;;;;;;;;;;;;;;;3.43;85.80;99381.06;5060880;27;20967;-68
2022/01/05 00:16:35;;;;;;;;;;;;;;;3.37;84.12;99380.72;5059273;27;20019;-69
2022/01/05 00:19:01;;;;;;;;;;;;;;;3.10;85.20;99384.59;5057347;27;20634;-70
2022/01/05 00:21:26;;;;;;;;;;;;;;;3.05;85.06;99386.75;5019190;27;20341;-71
2022/01/05 00:23:51;;;;;;;;;;;;;;;2.98;85.43;99378.56;5041221;27;20872;-70
2022/01/05 00:26:16;;;;;;;;;;;;;;;2.83;85.78;99393.66;5019776;27;19907;-70
2022/01/05 00:28:42;;;;;;;;;;;;;;;2.81;86.43;99389.53;5038333;27;20269;-71
2022/01/05 00:31:07;;;;;;;;;;;;;;;2.71;86.13;99392.84;5037780;27;19910;-70
2022/01/05 00:33:32;;;;;;;;;;;;;;;2.62;87.56;99403.19;5060725;27;19946;-70
2022/01/05 00:35:57;;;;;;;;;;;;;;;2.63;87.48;99405.69;5033872;27;20057;-69
2022/01/05 00:38:23;;;;;;;;;;;;;;;2.57;87.83;99406.16;5059658;27;19915;-70
2022/01/05 00:40:48;;;;;;;;;;;;;;;2.61;88.48;99415.44;5038211;27;19977;-70
2022/01/05 00:43:13;;;;;;;;;;;;;;;2.58;87.61;99410.41;5059448;27;20008;-70
2022/01/05 00:45:38;;;;;;;;;;;;;;;2.62;86.48;99416.25;5057471;27;19919;-69
2022/01/05 00:48:03;;;;;;;;;;;;;;;2.67;88.10;99414.13;5056077;27;19899;-70
2022/01/05 00:50:29;;;;;;;;;;;;;;;2.52;87.13;99410.91;5039741;27;19907;-69
2022/01/05 00:53:00;;;;;;;;;;;;;;;2.58;87.67;99410.41;5056241;27;19907;-71
2022/01/05 00:55:25;;;;;;;;;;;;;;;2.87;88.50;99404.72;5054886;27;20012;-69
2022/01/05 00:57:52;;;;;;;;;;;;;;;2.71;88.30;99412.94;5055479;27;19903;-70
2022/01/05 01:00:17;;;;;;;;;;;;;;;2.80;88.75;99414.00;5058234;27;20118;-70
2022/01/05 01:02:42;;;;;;;;;;;;;;;2.81;88.45;99407.81;5033707;27;19903;-70
2022/01/05 01:05:07;;;;;;;;;;;;;;;2.82;88.77;99412.06;5058678;27;20403;-69
2022/01/05 01:07:32;;;;;;;;;;;;;;;2.96;88.28;99421.44;5047730;27;20502;-69
2022/01/05 01:09:58;;;;;;;;;;;;;;;3.05;87.09;99418.13;5035591;27;19912;-70
2022/01/05 01:12:23;;;;;;;;;;;;;;;2.88;86.87;99419.44;5038711;27;19915;-69
2022/01/05 01:14:48;;;;;;;;;;;;;;;2.95;88.11;99422.41;5059762;27;20316;-69
2022/01/05 01:17:13;;;;;;;;;;;;;;;2.97;88.18;99426.56;5060254;27;19940;-69
2022/01/05 01:19:39;;;;;;;;;;;;;;;3.10;88.63;99429.03;5061300;27;20015;-69
2022/01/05 01:22:04;;;;;;;;;;;;;;;3.11;89.40;99419.41;5055340;27;19907;-67
2022/01/05 01:24:29;;;;;;;;;;;;;;;3.16;89.22;99419.88;5062170;27;20015;-69
2022/01/05 01:26:54;;;;;;;;;;;;;;;3.13;89.00;99425.34;5040989;27;19930;-70
2022/01/05 01:29:19;;;;;;;;;;;;;;;3.17;88.72;99418.91;5066044;27;20231;-69
2022/01/05 01:31:45;;;;;;;;;;;;;;;3.24;88.10;99427.94;5036381;27;19907;-67
2022/01/05 01:34:10;;;;;;;;;;;;;;;3.15;88.69;99428.69;5061766;27;19990;-70
2022/01/05 01:36:35;;;;;;;;;;;;;;;3.18;87.63;99417.97;5035857;27;19994;-68
2022/01/05 01:39:01;;;;;;;;;;;;;;;3.19;87.27;99430.09;5034080;27;19963;-68
2022/01/05 01:41:26;;;;;;;;;;;;;;;3.07;86.46;99426.66;5037329;27;20045;-67
2022/01/05 01:43:51;;;;;;;;;;;;;;;3.08;87.00;99425.72;5016603;27;20008;-68
2022/01/05 01:46:16;;;;;;;;;;;;;;;3.09;87.12;99435.22;5043942;27;19917;-66
2022/01/05 01:48:42;;;;;;;;;;;;;;;3.15;88.09;99428.69;5030824;27;19916;-70
2022/01/05 01:51:07;;;;;;;;;;;;;;;3.20;87.80;99423.91;5058179;27;19911;-68
2022/01/05 01:53:32;;;;;;;;;;;;;;;3.05;86.98;99436.41;5037175;27;21872;-70
2022/01/05 01:55:58;;;;;;;;;;;;;;;3.13;87.29;99441.03;5023612;27;20595;-70
2022/01/05 01:58:23;;;;;;;;;;;;;;;3.07;86.03;99442.34;5017197;27;20008;-68
2022/01/05 02:00:48;;;;;;;;;;;;;;;3.00;87.51;99442.00;5038745;27;20440;-70
2022/01/05 02:03:14;;;;;;;;;;;;;;;3.01;86.47;99438.44;5051853;27;19955;-70
2022/01/05 02:05:39;;;;;;;;;;;;;;;2.92;86.49;99433.94;5055394;27;19903;-71
2022/01/05 02:08:04;;;;;;;;;;;;;;;2.97;87.94;99441.41;5022001;27;20133;-69
2022/01/05 02:10:30;;;;;;;;;;;;;;;3.03;88.34;99447.00;5055901;27;20008;-71
2022/01/05 02:12:55;;;;;;;;;;;;;;;3.06;88.50;99446.75;5038371;27;19991;-69
2022/01/05 02:15:21;;;;;;;;;;;;;;;3.04;88.41;99443.41;5057246;27;19955;-70
2022/01/05 02:17:57;;;;;;;;;;;;;;;3.07;87.99;99437.97;5055579;27;19932;-67
2022/01/05 02:20:24;;;;;;;;;;;;;;;3.18;88.53;99447.56;5036404;27;19915;-68
2022/01/05 02:22:49;;;;;;;;;;;;;;;3.18;86.81;99451.97;5036073;27;20330;-69
2022/01/05 02:25:14;;;;;;;;;;;;;;;3.15;87.86;99449.59;5035719;27;20016;-70
2022/01/05 02:27:40;;;;;;;;;;;;;;;3.13;88.27;99456.72;5055228;27;20097;-67
2022/01/05 02:30:06;;;;;;;;;;;;;;;3.02;87.61;99453.16;5037837;27;19907;-71
2022/01/05 02:32:31;;;;;;;;;;;;;;;2.91;87.69;99454.00;5024368;27;20154;-69
2022/01/05 02:34:56;;;;;;;;;;;;;;;2.96;87.42;99460.66;5034659;27;19927;-69
2022/01/05 02:37:21;;;;;;;;;;;;;;;2.98;87.58;99475.25;5060437;27;20349;-69
2022/01/05 02:39:47;;;;;;;;;;;;;;;2.99;88.38;99479.53;5056342;27;19972;-71
2022/01/05 02:42:23;;;;;;;;;;;;;;;3.03;87.26;99477.50;5038298;27;20391;-70
2022/01/05 02:44:48;;;;;;;;;;;;;;;3.08;87.29;99483.22;5033771;27;20390;-70
2022/01/05 02:47:13;;;;;;;;;;;;;;;3.03;87.31;99488.81;5015033;27;20238;-70
2022/01/05 02:49:38;;;;;;;;;;;;;;;3.01;86.63;99485.47;5036700;27;20162;-70
2022/01/05 02:52:04;;;;;;;;;;;;;;;3.04;86.96;99493.06;5031532;27;19907;-68
2022/01/05 02:54:29;;;;;;;;;;;;;;;2.99;87.73;99497.84;5035071;27;19980;-70
2022/01/05 02:56:54;;;;;;;;;;;;;;;2.97;87.83;99510.16;5032599;27;20847;-67
2022/01/05 02:59:19;;;;;;;;;;;;;;;2.96;87.08;99511.16;5033170;27;20918;-69
2022/01/05 03:01:44;;;;;;;;;;;;;;;2.93;86.52;99513.97;5030919;27;19948;-68
2022/01/05 03:04:10;;;;;;;;;;;;;;;2.92;87.26;99513.16;5036813;27;20012;-68
2022/01/05 03:06:35;;;;;;;;;;;;;;;2.90;86.83;99524.66;5022902;27;19907;-70
2022/01/05 03:09:00;;;;;;;;;;;;;;;2.83;86.77;99526.09;5035029;27;19907;-71
2022/01/05 03:11:26;;;;;;;;;;;;;;;2.99;86.62;99523.97;5032527;27;19904;-69
2022/01/05 03:13:51;;;;;;;;;;;;;;;2.93;85.11;99524.41;5033215;27;20099;-70
2022/01/05 03:16:16;;;;;;;;;;;;;;;2.91;85.73;99536.78;5037677;27;19944;-69
2022/01/05 03:18:41;;;;;;;;;;;;;;;2.89;85.40;99541.28;5032535;27;19915;-70
2022/01/05 03:21:06;;;;;;;;;;;;;;;2.85;85.01;99543.31;5031927;27;19918;-67
2022/01/05 03:23:32;;;;;;;;;;;;;;;2.81;85.56;99543.69;5030449;27;20008;-68
2022/01/05 03:25:57;;;;;;;;;;;;;;;2.86;84.80;99554.59;5031609;27;19903;-67
2022/01/05 03:28:22;;;;;;;;;;;;;;;2.92;85.12;99551.53;5031884;28;19914;-68
2022/01/05 03:30:47;;;;;;;;;;;;;;;2.87;83.97;99556.25;5032490;27;19922;-68
2022/01/05 03:33:15;;;;;;;;;;;;;;;2.86;84.24;99562.41;5030128;28;19904;-68
2022/01/05 03:35:42;;;;;;;;;;;;;;;2.80;84.57;99560.28;5030736;27;20054;-69
2022/01/05 03:38:07;;;;;;;;;;;;;;;2.71;84.72;99567.88;5037817;27;19907;-71
2022/01/05 03:40:34;;;;;;;;;;;;;;;2.73;84.68;99572.97;5006084;27;19908;-69
2022/01/05 03:42:59;;;;;;;;;;;;;;;2.64;84.78;99579.72;5026329;28;20170;-70
2022/01/05 03:45:24;;;;;;;;;;;;;;;2.71;83.66;99578.31;5033054;27;19920;-69
2022/01/05 03:47:50;;;;;;;;;;;;;;;2.71;84.01;99573.09;5048571;27;19918;-70
2022/01/05 03:50:15;;;;;;;;;;;;;;;2.50;82.99;99575.53;5052853;27;19911;-67
2022/01/05 03:52:40;;;;;;;;;;;;;;;2.56;82.49;99577.66;5051423;27;20339;-69
2022/01/05 03:55:05;;;;;;;;;;;;;;;2.44;83.62;99581.22;5054588;27;20374;-68
2022/01/05 03:57:32;;;;;;;;;;;;;;;2.37;83.15;99575.59;5041609;27;19941;-69
2022/01/05 03:59:57;;;;;;;;;;;;;;;2.45;82.88;99585.47;5053924;27;19919;-68
2022/01/05 04:02:22;;;;;;;;;;;;;;;2.39;82.97;99591.97;5053058;27;19907;-67
2022/01/05 04:04:48;;;;;;;;;;;;;;;2.43;82.88;99604.81;5055052;27;19903;-69
2022/01/05 04:07:13;;;;;;;;;;;;;;;2.46;82.78;99607.22;5031501;27;20121;-67
2022/01/05 04:09:39;;;;;;;;;;;;;;;2.39;82.96;99623.31;5030569;27;19935;-68
2022/01/05 04:12:04;;;;;;;;;;;;;;;2.29;82.85;99624.94;5011948;28;20404;-68
2022/01/05 04:14:29;;;;;;;;;;;;;;;2.35;82.18;99628.88;5010114;28;19926;-68
2022/01/05 04:16:54;;;;;;;;;;;;;;;2.31;82.20;99628.25;5014112;28;19914;-68
2022/01/05 04:19:20;;;;;;;;;;;;;;;2.46;81.65;99630.72;5010235;28;19908;-70
2022/01/05 04:21:45;;;;;;;;;;;;;;;2.27;81.70;99639.88;5013334;28;19948;-70
2022/01/05 04:24:10;;;;;;;;;;;;;;;2.34;82.14;99638.50;4995720;28;19931;-70
2022/01/05 04:26:35;;;;;;;;;;;;;;;2.33;81.66;99636.81;5020874;27;20332;-70
2022/01/05 04:29:00;;;;;;;;;;;;;;;2.35;81.76;99640.13;4997570;28;19908;-71
2022/01/05 04:31:26;;;;;;;;;;;;;;;2.23;81.78;99646.25;5016889;28;20103;-69
2022/01/05 04:33:51;;;;;;;;;;;;;;;2.29;82.40;99655.44;5012568;28;19923;-68
2022/01/05 04:36:16;;;;;;;;;;;;;;;2.21;82.67;99648.13;5019927;27;19904;-69
2022/01/05 04:38:41;;;;;;;;;;;;;;;2.37;80.97;99656.53;5033381;27;19918;-68
2022/01/05 04:41:07;;;;;;;;;;;;;;;2.22;82.07;99655.03;5020777;27;19904;-69
2022/01/05 04:43:32;;;;;;;;;;;;;;;2.21;82.01;99667.25;5038539;27;19904;-67
2022/01/05 04:45:57;;;;;;;;;;;;;;;2.25;82.11;99660.03;5038179;27;19926;-69
2022/01/05 04:48:22;;;;;;;;;;;;;;;2.26;81.83;99669.53;4999604;27;19903;-70
2022/01/05 04:50:48;;;;;;;;;;;;;;;2.15;81.72;99669.47;5018712;27;19948;-70
2022/01/05 04:53:13;;;;;;;;;;;;;;;2.28;81.51;99669.41;5037184;27;20511;-69
2022/01/05 04:55:39;;;;;;;;;;;;;;;2.27;81.08;99673.81;5033921;27;19915;-70
2022/01/05 04:58:04;;;;;;;;;;;;;;;2.22;80.52;99689.78;5017673;27;19899;-70
2022/01/05 05:00:29;;;;;;;;;;;;;;;2.24;81.20;99687.06;4997931;27;19911;-70
2022/01/05 05:02:54;;;;;;;;;;;;;;;2.29;80.82;99679.75;5022629;27;20870;-70
2022/01/05 05:05:20;;;;;;;;;;;;;;;2.37;79.71;99674.81;5035110;27;20226;-69
2022/01/05 05:07:45;;;;;;;;;;;;;;;2.22;80.36;99689.78;5011826;27;19944;-70
2022/01/05 05:10:10;;;;;;;;;;;;;;;2.21;80.38;99689.91;5027100;27;19978;-69
2022/01/05 05:12:35;;;;;;;;;;;;;;;2.15;80.28;99693.78;5039021;27;20612;-71
2022/01/05 05:15:00;;;;;;;;;;;;;;;2.19;79.97;99692.63;4999053;27;19920;-69
2022/01/05 05:17:26;;;;;;;;;;;;;;;2.05;80.04;99687.56;5018106;27;19953;-71
2022/01/05 05:19:51;;;;;;;;;;;;;;;2.02;80.45;99690.38;5034471;27;20085;-68
2022/01/05 05:22:16;;;;;;;;;;;;;;;1.95;81.06;99689.97;5035047;27;19904;-69
2022/01/05 05:24:41;;;;;;;;;;;;;;;1.98;80.64;99688.94;5016576;27;19911;-68
2022/01/05 05:27:07;;;;;;;;;;;;;;;1.99;80.92;99688.81;5032794;27;20004;-68
2022/01/05 05:29:32;;;;;;;;;;;;;;;1.93;80.71;99697.06;5017513;27;19989;-66
2022/01/05 05:31:57;;;;;;;;;;;;;;;1.99;81.01;99701.88;5034224;27;19907;-69
2022/01/05 05:34:23;;;;;;;;;;;;;;;2.06;80.76;99695.25;5039096;27;20385;-69
2022/01/05 05:36:49;;;;;;;;;;;;;;;2.05;80.62;99690.97;5028211;27;20008;-70
2022/01/05 05:39:14;;;;;;;;;;;;;;;2.14;80.20;99702.53;5030071;27;20905;-70
2022/01/05 05:41:39;;;;;;;;;;;;;;;2.04;79.69;99696.31;5031883;27;20238;-70
2022/01/05 05:44:04;;;;;;;;;;;;;;;2.12;79.53;99707.06;5044834;27;19986;-70
2022/01/05 05:46:30;;;;;;;;;;;;;;;1.97;80.27;99703.72;5035957;27;19913;-70
2022/01/05 05:48:55;;;;;;;;;;;;;;;2.08;79.91;99705.59;5030048;27;20039;-70
2022/01/05 05:51:20;;;;;;;;;;;;;;;2.10;79.32;99705.47;5043287;27;19919;-69
2022/01/05 05:53:45;;;;;;;;;;;;;;;1.94;80.34;99706.56;5051857;27;19930;-70
2022/01/05 05:56:10;;;;;;;;;;;;;;;2.00;79.85;99711.38;5050263;27;19915;-68
2022/01/05 05:58:36;;;;;;;;;;;;;;;2.01;79.32;99705.19;5054607;27;19907;-68
2022/01/05 06:01:01;;;;;;;;;;;;;;;2.18;78.71;99708.38;5029435;27;20001;-71
2022/01/05 06:03:26;;;;;;;;;;;;;;;2.09;78.03;99712.50;5048609;27;19918;-71
2022/01/05 06:05:51;;;;;;;;;;;;;;;2.09;78.38;99717.72;5030697;27;20092;-67
2022/01/05 06:08:17;;;;;;;;;;;;;;;2.15;78.73;99722.47;5047946;27;19978;-69
2022/01/05 06:10:42;;;;;;;;;;;;;;;2.21;79.29;99726.44;5041964;27;20411;-69
2022/01/05 06:13:07;;;;;;;;;;;;;;;2.22;78.31;99733.34;5045443;27;19955;-70
2022/01/05 06:15:32;;;;;;;;;;;;;;;2.34;76.76;99727.25;5038992;27;19927;-69
2022/01/05 06:17:58;;;;;;;;;;;;;;;2.01;77.36;99731.28;5034916;27;19907;-69
2022/01/05 06:20:23;;;;;;;;;;;;;;;2.22;77.99;99733.34;5011036;27;20396;-68
2022/01/05 06:22:48;;;;;;;;;;;;;;;2.27;77.01;99741.69;5048919;27;19960;-68
2022/01/05 06:25:13;;;;;;;;;;;;;;;2.36;75.73;99748.03;5058828;27;20665;-68
2022/01/05 06:27:39;;;;;;;;;;;;;;;2.20;76.42;99745.63;5054014;27;20404;-69
2022/01/05 06:30:07;;;;;;;;;;;;;;;2.15;77.07;99739.94;5019120;27;20707;-69
2022/01/05 06:32:34;;;;;;;;;;;;;;;2.18;76.78;99743.13;5056383;27;20322;-69
2022/01/05 06:34:59;;;;;;;;;;;;;;;2.17;77.19;99746.72;5033755;27;19926;-67
2022/01/05 06:37:24;;;;;;;;;;;;;;;2.32;75.85;99744.78;5023955;27;20285;-69
2022/01/05 06:39:50;;;;;;;;;;;;;;;2.31;76.64;99753.56;5009706;27;20147;-67
2022/01/05 06:42:15;;;;;;;;;;;;;;;2.26;76.44;99752.22;5052300;27;20037;-71
2022/01/05 06:44:40;;;;;;;;;;;;;;;2.14;76.86;99741.69;5032390;27;20016;-69
2022/01/05 06:47:05;;;;;;;;;;;;;;;2.14;77.07;99759.13;5028004;27;20500;-70
2022/01/05 06:49:32;;;;;;;;;;;;;;;2.35;76.40;99754.19;5032619;27;20709;-67
2022/01/05 06:51:57;;;;;;;;;;;;;;;2.25;76.51;99754.00;5024214;27;20024;-69
2022/01/05 06:54:22;;;;;;;;;;;;;;;2.20;76.83;99758.69;5056130;27;19919;-69
2022/01/05 06:56:47;;;;;;;;;;;;;;;2.27;77.36;99764.31;5035708;27;19911;-68
2022/01/05 06:59:14;;;;;;;;;;;;;;;2.34;76.34;99769.03;5037361;27;19982;-69
2022/01/05 07:01:39;;;;;;;;;;;;;;;2.43;75.46;99775.38;5053786;27;19944;-67
2022/01/05 07:04:04;;;;;;;;;;;;;;;2.28;75.88;99779.06;5045154;27;20020;-68
2022/01/05 07:06:30;;;;;;;;;;;;;;;2.23;76.68;99776.78;5053215;27;19916;-68
2022/01/05 07:08:55;;;;;;;;;;;;;;;2.24;76.96;99783.63;5051695;27;19912;-70
2022/01/05 07:11:20;;;;;;;;;;;;;;;2.22;76.96;99788.97;5032025;27;19922;-68
2022/01/05 07:13:45;;;;;;;;;;;;;;;2.21;76.77;99799.53;5048355;27;19915;-69
2022/01/05 07:16:10;;;;;;;;;;;;;;;2.21;77.36;99799.53;5057760;27;19926;-68
2022/01/05 07:18:36;;;;;;;;;;;;;;;2.37;76.82;99799.31;5024382;27;19908;-69
2022/01/05 07:21:01;;;;;;;;;;;;;;;2.42;76.91;99806.81;5026631;27;19919;-69
2022/01/05 07:23:26;;;;;;;;;;;;;;;2.46;76.58;99810.88;5006254;28;19976;-70
2022/01/05 07:25:51;;;;;;;;;;;;;;;2.48;76.52;99808.97;5031406;27;20283;-69
2022/01/05 07:28:17;;;;;;;;;;;;;;;2.63;75.90;99822.75;5028646;28;20024;-70
2022/01/05 07:30:42;;;;;;;;;;;;;;;2.48;76.16;99806.38;5033783;27;19899;-69
2022/01/05 07:33:07;;;;;;;;;;;;;;;2.52;75.97;99821.69;5015288;28;20809;-68
2022/01/05 07:35:32;;;;;;;;;;;;;;;2.57;76.17;99813.56;5034644;27;19986;-68
2022/01/05 07:37:57;;;;;;;;;;;;;;;2.43;76.22;99819.75;5017372;27;20008;-68
2022/01/05 07:40:23;;;;;;;;;;;;;;;2.41;76.75;99824.22;5058305;27;19911;-68
2022/01/05 07:42:48;;;;;;;;;;;;;;;2.56;76.27;99817.94;5023659;27;20036;-68
2022/01/05 07:45:13;;;;;;;;;;;;;;;2.60;76.09;99821.19;5053774;27;19923;-68
2022/01/05 07:47:38;;;;;;;;;;;;;;;2.60;76.30;99821.19;5037422;27;19903;-67
2022/01/05 07:50:04;;;;;;;;;;;;;;;2.58;77.04;99825.66;5008917;27;19952;-68
2022/01/05 07:52:29;;;;;;;;;;;;;;;2.61;76.67;99824.59;5037555;27;20023;-69
2022/01/05 07:54:55;;;;;;;;;;;;;;;2.59;76.25;99827.34;5015513;27;20374;-68
2022/01/05 07:57:20;;;;;;;;;;;;;;;2.54;76.87;99825.06;5038035;27;20404;-69
2022/01/05 07:59:45;;;;;;;;;;;;;;;2.57;77.30;99830.06;5050736;27;19911;-68
2022/01/05 08:02:10;;;;;;;;;;;;;;;2.58;76.61;99823.03;5034086;27;19971;-68
2022/01/05 08:04:36;;;;;;;;;;;;;;;2.73;76.37;99827.19;5055792;27;20094;-68
2022/01/05 08:07:01;;;;;;;;;;;;;;;2.69;76.05;99841.44;5053559;27;19903;-68
2022/01/05 08:09:29;;;;;;;;;;;;;;;2.67;76.48;99838.09;5035206;27;19922;-67
2022/01/05 08:11:54;;;;;;;;;;;;;;;2.67;76.28;99848.53;5030263;27;19908;-67
2022/01/05 08:14:19;;;;;;;;;;;;;;;2.67;76.62;99850.31;5058781;27;20139;-68
2022/01/05 08:16:45;;;;;;;;;;;;;;;2.70;76.77;99853.53;5024096;27;20497;-66
2022/01/05 08:19:10;;;;;;;;;;;;;;;2.77;76.82;99861.78;5035873;27;19944;-68
2022/01/05 08:21:35;;;;;;;;;;;;;;;2.69;77.00;99851.88;5032408;27;20483;-68
2022/01/05 08:24:00;;;;;;;;;;;;;;;2.84;76.70;99854.34;5055300;27;19945;-70
2022/01/05 08:26:25;;;;;;;;;;;;;;;3.03;75.49;99859.94;5039541;27;20104;-67
2022/01/05 08:28:51;;;;;;;;;;;;;;;2.82;76.38;99864.06;5037852;27;19915;-68
2022/01/05 08:31:16;;;;;;;;;;;;;;;2.89;76.11;99862.66;5038812;27;20144;-68
2022/01/05 08:33:42;;;;;;;;;;;;;;;2.89;76.86;99860.91;5034791;27;19907;-68
2022/01/05 08:36:07;;;;;;;;;;;;;;;3.03;76.15;99862.53;5041621;27;19915;-68
2022/01/05 08:38:35;;;;;;;;;;;;;;;2.88;76.02;99867.06;5016751;27;19915;-67
2022/01/05 08:41:00;;;;;;;;;;;;;;;2.95;76.37;99864.00;5048329;27;19949;-69
2022/01/05 08:43:25;;;;;;;;;;;;;;;2.89;76.83;99868.75;5033991;27;20444;-68
2022/01/05 08:45:50;;;;;;;;;;;;;;;2.85;76.68;99862.06;5054873;27;19945;-67
2022/01/05 08:48:16;;;;;;;;;;;;;;;2.87;76.77;99885.47;5069322;27;20277;-68
2022/01/05 08:50:41;;;;;;;;;;;;;;;2.99;76.43;99886.38;5062414;27;19967;-69
2022/01/05 08:53:06;;;;;;;;;;;;;;;2.99;75.89;99884.63;5047497;27;20864;-70
2022/01/05 08:55:42;;;;;;;;;;;;;;;2.98;76.16;99901.22;5026730;27;20143;-68
2022/01/05 08:58:07;;;;;;;;;;;;;;;3.08;75.86;99909.25;5063531;27;19952;-66
2022/01/05 09:00:32;;;;;;;;;;;;;;;3.13;75.81;99901.94;5046020;27;20443;-69
2022/01/05 09:02:58;;;;;;;;;;;;;;;3.03;76.21;99898.28;5064273;27;19972;-67
2022/01/05 09:05:23;;;;;;;;;;;;;;;3.05;76.51;99899.84;5062085;27;20096;-68
2022/01/05 09:07:48;;;;;;;;;;;;;;;3.03;76.12;99908.75;5027765;27;19911;-66
2022/01/05 09:10:13;;;;;;;;;;;;;;;2.98;76.05;99903.84;5041373;27;19908;-70
2022/01/05 09:12:39;;;;;;;;;;;;;;;2.95;76.52;99898.84;5058206;27;19947;-67
2022/01/05 09:15:04;;;;;;;;;;;;;;;3.11;75.85;99906.41;5063730;27;20333;-68
2022/01/05 09:17:30;;;;;;;;;;;;;;;3.04;75.82;99913.84;5020047;27;21658;-68
2022/01/05 09:19:55;;;;;;;;;;;;;;;3.07;75.68;99902.34;5060054;27;19959;-68
2022/01/05 09:22:20;;;;;;;;;;;;;;;3.01;76.14;99902.78;5038658;27;20696;-71
2022/01/05 09:24:45;;;;;;;;;;;;;;;3.03;75.94;99896.53;5064028;27;20455;-68
2022/01/05 09:27:11;;;;;;;;;;;;;;;3.18;76.19;99897.19;5031114;27;19899;-68
2022/01/05 09:29:37;;;;;;;;;;;;;;;3.11;75.80;99897.75;5026689;27;19907;-68
2022/01/05 09:32:08;;;;;;;;;;;;;;;3.09;75.72;99893.47;5059159;27;19903;-68
2022/01/05 09:34:33;;;;;;;;;;;;;;;3.09;75.64;99890.84;5080926;27;19919;-67
2022/01/05 09:37:05;;;;;;;;;;;;;;;3.24;75.36;99901.13;5057610;27;20151;-68
2022/01/05 09:42:14;;;;;;;;;;;;;;;3.19;74.72;99893.63;5046697;27;19919;-67
2022/01/05 09:44:43;;;;;;;;;;;;;;;3.22;75.63;99900.44;5062429;27;19915;-68
2022/01/05 09:47:08;;;;;;;;;;;;;;;3.28;75.52;99891.31;5050516;27;20208;-69
2022/01/05 09:49:34;;;;;;;;;;;;;;;3.36;74.65;99905.50;5065132;27;19910;-67
2022/01/05 09:52:00;;;;;;;;;;;;;;;3.39;73.96;99909.66;5062762;27;20000;-67
2022/01/05 09:54:26;;;;;;;;;;;;;;;3.49;74.53;99907.22;5067386;27;19926;-69
2022/01/05 09:56:51;;;;;;;;;;;;;;;3.54;74.44;99911.16;5045192;27;19907;-69
2022/01/05 09:59:16;;;;;;;;;;;;;;;3.48;74.69;99916.00;5064644;27;19903;-69
2022/01/05 10:01:42;;;;;;;;;;;;;;;3.41;75.08;99926.91;5060366;27;19907;-68
2022/01/05 10:04:07;;;;;;;;;;;;;;;3.50;75.08;99919.34;5063635;27;19965;-68
2022/01/05 10:06:34;;;;;;;;;;;;;;;3.40;75.24;99914.78;5050698;27;20215;-68
2022/01/05 10:08:59;;;;;;;;;;;;;;;3.59;74.63;99921.28;5042658;27;19915;-68
2022/01/05 10:11:24;;;;;;;;;;;;;;;3.54;74.33;99933.84;5046616;27;19914;-69
2022/01/05 10:13:50;;;;;;;;;;;;;;;3.53;74.91;99929.59;5027491;27;19907;-70
2022/01/05 10:16:15;;;;;;;;;;;;;;;3.53;75.13;99924.38;5042851;27;19907;-69
2022/01/05 10:18:41;;;;;;;;;;;;;;;3.47;75.39;99935.25;5045735;27;19914;-69
2022/01/05 10:21:06;;;;;;;;;;;;;;;3.51;75.15;99931.47;5043279;27;19907;-69
2022/01/05 10:23:36;;;;;;;;;;;;;;;3.60;75.17;99930.81;5046337;27;20913;-69
2022/01/05 10:26:23;;;;;;;;;;;;;;;3.78;74.86;99912.94;5048075;27;20096;-70
2022/01/05 10:28:49;;;;;;;;;;;;;;;3.77;74.39;99925.16;5028114;27;19914;-69
2022/01/05 10:31:33;;;;;;;;;;;;;;;3.89;74.48;99926.06;5061826;27;19930;-68
2022/01/05 10:33:58;;;;;;;;;;;;;;;3.86;73.97;99912.34;5046367;27;19923;-68
2022/01/05 10:36:23;;;;;;;;;;;;;;;3.76;75.44;99935.75;5067267;27;20875;-69
2022/01/05 10:38:55;;;;;;;;;;;;;;;3.78;75.40;99926.03;5063096;27;19914;-70
2022/01/05 10:41:21;;;;;;;;;;;;;;;3.76;75.13;99927.91;5042134;27;20814;-67
2022/01/05 10:44:05;;;;;;;;;;;;;;;3.81;74.96;99924.94;5024402;27;19915;-68
2022/01/05 10:46:31;;;;;;;;;;;;;;;3.78;75.28;99924.22;5060336;27;20306;-69
2022/01/05 10:48:56;;;;;;;;;;;;;;;3.88;74.10;99918.31;5063011;27;20338;-68
2022/01/05 10:51:28;;;;;;;;;;;;;;;3.83;75.08;99916.03;5058342;27;19907;-69
2022/01/05 10:54:08;;;;;;;;;;;;;;;3.92;75.15;99927.59;5037197;27;19910;-69
2022/01/05 10:56:33;;;;;;;;;;;;;;;3.76;74.98;99925.28;5038379;27;20400;-69
2022/01/05 10:58:59;;;;;;;;;;;;;;;3.87;74.72;99914.03;5036106;27;19918;-66
2022/01/05 11:01:27;;;;;;;;;;;;;;;3.85;75.01;99918.53;5057894;27;19904;-67
2022/01/05 11:03:52;;;;;;;;;;;;;;;4.02;73.63;99925.97;5039060;27;20023;-69
2022/01/05 11:06:18;;;;;;;;;;;;;;;4.18;74.84;99919.59;5057946;27;19899;-70
2022/01/05 11:08:52;;;;;;;;;;;;;;;4.28;73.72;99937.09;5053139;27;19925;-70
2022/01/05 11:11:32;;;;;;;;;;;;;;;4.18;73.33;99930.88;5058115;27;20864;-71
2022/01/05 11:13:58;;;;;;;;;;;;;;;4.22;73.39;99936.72;5060912;27;20016;-71
2022/01/05 11:16:26;;;;;;;;;;;;;;;4.10;74.01;99928.00;5033866;27;19988;-70
2022/01/05 11:19:10;;;;;;;;;;;;;;;4.29;74.31;99932.69;5034672;27;20665;-68
2022/01/05 11:21:36;;;;;;;;;;;;;;;4.47;73.16;99935.72;5034814;27;19927;-68
2022/01/05 11:24:02;;;;;;;;;;;;;;;4.21;73.88;99945.53;5047931;27;19904;-68
2022/01/05 11:26:27;;;;;;;;;;;;;;;4.18;74.86;99924.81;5041094;27;19908;-67
2022/01/05 11:28:52;;;;;;;;;;;;;;;4.08;75.12;99943.00;5046414;27;19926;-68
2022/01/05 11:31:17;;;;;;;;;;;;;;;4.09;76.52;99931.56;5065490;27;20151;-68
2022/01/05 11:33:43;;;;;;;;;;;;;;;4.18;76.17;99916.97;5065168;27;20015;-70
2022/01/05 11:36:08;;;;;;;;;;;;;;;4.13;75.38;99925.16;5045930;27;19983;-68
2022/01/05 11:38:33;;;;;;;;;;;;;;;4.04;75.48;99929.28;5050620;27;20018;-69
2022/01/05 11:40:58;;;;;;;;;;;;;;;4.03;75.56;99926.78;5048210;27;19907;-67
2022/01/05 11:43:35;;;;;;;;;;;;;;;4.05;76.72;99920.50;5046921;27;19914;-68
2022/01/05 11:46:13;;;;;;;;;;;;;;;4.11;75.81;99933.13;5041618;27;19926;-68
2022/01/05 11:48:40;;;;;;;;;;;;;;;4.21;77.67;99928.03;5028067;27;20084;-69
2022/01/05 11:51:05;;;;;;;;;;;;;;;4.23;76.96;99922.66;5023121;27;20830;-67
2022/01/05 11:53:33;;;;;;;;;;;;;;;4.45;75.95;99932.34;5064980;27;19903;-68
2022/01/05 11:55:58;;;;;;;;;;;;;;;4.50;75.57;99924.13;5064889;27;19937;-69
2022/01/05 11:58:26;;;;;;;;;;;;;;;4.57;75.58;99931.41;5048111;27;20043;-67
2022/01/05 12:01:11;;;;;;;;;;;;;;;4.64;75.65;99930.00;5065225;27;19910;-68
2022/01/05 12:03:57;;;;;;;;;;;;;;;4.60;75.38;99930.34;5100728;27;19952;-68
2022/01/05 12:06:26;;;;;;;;;;;;;;;4.47;75.61;99961.91;5072975;27;19968;-69
2022/01/05 12:08:52;;;;;;;;;;;;;;;4.52;75.13;99927.47;5056162;27;19978;-69
2022/01/05 12:11:38;;;;;;;;;;;;;;;4.48;74.88;99932.13;5065330;27;21056;-69
2022/01/05 12:14:23;;;;;;;;;;;;;;;4.37;74.93;99934.72;5044829;27;19919;-68
2022/01/05 12:17:01;;;;;;;;;;;;;;;4.43;74.80;99937.72;5037432;27;20073;-67
2022/01/05 12:19:26;;;;;;;;;;;;;;;4.46;74.86;99950.56;5065313;27;20368;-70
2022/01/05 12:21:52;;;;;;;;;;;;;;;4.47;74.60;99948.81;5045989;27;20830;-68
2022/01/05 12:24:18;;;;;;;;;;;;;;;4.52;74.25;99951.88;5043228;27;19907;-67
2022/01/05 12:26:48;;;;;;;;;;;;;;;4.52;74.60;99949.25;5028230;27;19903;-67
2022/01/05 12:29:28;;;;;;;;;;;;;;;4.59;74.86;99947.84;5047108;27;20385;-67
2022/01/05 12:31:54;;;;;;;;;;;;;;;4.59;75.02;99960.13;5027856;27;19903;-68
2022/01/05 12:34:38;;;;;;;;;;;;;;;4.47;75.58;99969.75;5062596;27;19922;-69
2022/01/05 12:37:03;;;;;;;;;;;;;;;4.60;75.04;99957.38;5037258;27;19976;-69
2022/01/05 12:39:47;;;;;;;;;;;;;;;4.51;74.70;99950.22;5063578;27;19940;-69
2022/01/05 12:42:22;;;;;;;;;;;;;;;4.36;74.91;99954.84;5066059;27;19903;-69
2022/01/05 12:44:47;;;;;;;;;;;;;;;4.47;75.50;99960.09;5039764;27;19927;-69
2022/01/05 12:47:13;;;;;;;;;;;;;;;4.39;74.61;99954.63;5060688;27;19911;-67
2022/01/05 12:49:39;;;;;;;;;;;;;;;4.48;75.62;99968.78;5061471;27;19913;-69
2022/01/05 12:52:04;;;;;;;;;;;;;;;4.59;75.64;99970.59;5025446;27;19994;-69
2022/01/05 12:54:31;;;;;;;;;;;;;;;4.69;74.26;99965.50;5036907;27;19926;-69
2022/01/05 12:57:03;;;;;;;;;;;;;;;4.56;74.94;99962.97;5062488;27;19903;-69